createdAt,value
2022-10-20T00:02:25.877Z,4.87
2022-10-20T00:05:12.881Z,5.03
2022-10-20T00:07:59.816Z,4.90
2022-10-20T00:10:56.348Z,4.83
2022-10-20T00:13:45.744Z,4.80
2022-10-20T00:16:36.802Z,4.72
2022-10-20T00:19:23.813Z,4.63
2022-10-20T00:22:10.724Z,4.64
2022-10-20T00:24:57.703Z,4.62
2022-10-20T00:27:44.631Z,4.56
2022-10-20T00:30:31.861Z,4.52
2022-10-20T00:33:18.757Z,4.59
2022-10-20T00:36:08.647Z,4.55
2022-10-20T00:39:01.313Z,4.48
2022-10-20T00:41:48.300Z,4.41
2022-10-20T00:45:11.874Z,4.39
2022-10-20T00:48:14.852Z,4.34
2022-10-20T00:51:02.165Z,4.35
2022-10-20T00:53:51.782Z,4.34
2022-10-20T00:56:41.046Z,4.33
2022-10-20T00:59:32.563Z,4.43
2022-10-20T01:02:20.290Z,4.44
2022-10-20T01:05:08.031Z,4.41
2022-10-20T01:07:55.161Z,4.42
2022-10-20T01:11:18.423Z,4.51
2022-10-20T01:14:21.777Z,4.44
2022-10-20T01:17:08.721Z,4.38
2022-10-20T01:20:04.409Z,4.33
2022-10-20T01:22:51.370Z,4.36
2022-10-20T01:25:38.289Z,4.31
2022-10-20T01:29:13.306Z,4.23
2022-10-20T01:32:22.471Z,4.29
2022-10-20T01:35:23.125Z,4.22
2022-10-20T01:38:35.107Z,4.13
2022-10-20T01:41:33.044Z,4.07
2022-10-20T01:44:23.909Z,3.98
2022-10-20T01:47:12.273Z,3.95
2022-10-20T01:49:59.516Z,3.94
2022-10-20T01:52:46.874Z,3.92
2022-10-20T01:55:35.497Z,3.87
2022-10-20T01:58:36.514Z,3.87
2022-10-20T02:01:31.034Z,3.91
2022-10-20T02:04:27.390Z,3.90
2022-10-20T02:07:27.263Z,3.84
2022-10-20T02:10:27.799Z,3.82
2022-10-20T02:13:16.327Z,3.84
2022-10-20T02:16:10.517Z,3.80
2022-10-20T02:21:54.092Z,3.80
2022-10-20T02:24:42.913Z,3.79
2022-10-20T02:27:34.665Z,3.80
2022-10-20T02:30:22.154Z,3.78
2022-10-20T02:33:09.694Z,3.73
2022-10-20T02:35:58.840Z,3.77
2022-10-20T02:38:46.122Z,3.72
2022-10-20T02:41:33.434Z,3.64
2022-10-20T02:44:20.815Z,3.61
2022-10-20T02:47:07.754Z,3.58
2022-10-20T02:49:54.705Z,3.55
2022-10-20T02:52:42.491Z,3.59
2022-10-20T02:55:29.705Z,3.59
2022-10-20T02:58:16.799Z,3.62
2022-10-20T03:01:04.397Z,3.59
2022-10-20T03:03:51.545Z,3.58
2022-10-20T03:06:39.047Z,3.62
2022-10-20T03:09:26.141Z,3.80
2022-10-20T03:12:13.091Z,3.91
2022-10-20T03:15:00.106Z,3.95
2022-10-20T03:17:46.992Z,3.94
2022-10-20T03:20:34.372Z,3.99
2022-10-20T03:23:21.821Z,4.11
2022-10-20T03:26:11.068Z,4.08
2022-10-20T03:28:57.977Z,3.99
2022-10-20T03:31:45.009Z,3.93
2022-10-20T03:34:32.095Z,3.80
2022-10-20T03:37:19.024Z,3.84
2022-10-20T03:40:06.601Z,3.79
2022-10-20T03:42:53.487Z,3.76
2022-10-20T03:45:40.477Z,3.72
2022-10-20T03:48:27.829Z,3.67
2022-10-20T03:51:15.649Z,3.58
2022-10-20T03:54:02.648Z,3.49
2022-10-20T03:56:50.441Z,3.49
2022-10-20T03:59:37.569Z,3.49
2022-10-20T04:02:37.404Z,3.42
2022-10-20T04:05:24.661Z,3.35
2022-10-20T04:08:11.672Z,3.33
2022-10-20T04:10:59.106Z,3.35
2022-10-20T04:13:46.153Z,3.30
2022-10-20T04:16:33.079Z,3.29
2022-10-20T04:19:20.059Z,3.24
2022-10-20T04:22:07.020Z,3.21
2022-10-20T04:24:54.051Z,3.15
2022-10-20T04:27:41.803Z,3.14
2022-10-20T04:30:28.764Z,3.28
2022-10-20T04:33:16.411Z,3.26
2022-10-20T04:36:07.078Z,3.52
2022-10-20T04:38:53.957Z,3.73
2022-10-20T04:41:41.206Z,3.70
2022-10-20T04:44:28.114Z,3.68
2022-10-20T04:47:15.159Z,3.65
2022-10-20T04:50:02.155Z,3.66
2022-10-20T04:52:49.136Z,3.67
2022-10-20T04:55:36.371Z,3.82
2022-10-20T04:58:24.240Z,3.71
2022-10-20T05:01:11.402Z,3.80
2022-10-20T05:03:58.702Z,3.78
2022-10-20T05:06:45.717Z,3.83
2022-10-20T05:09:33.093Z,3.73
2022-10-20T05:12:20.035Z,3.73
2022-10-20T05:15:07.534Z,3.70
2022-10-20T05:17:54.420Z,3.88
2022-10-20T05:20:57.176Z,3.84
2022-10-20T05:23:48.426Z,3.83
2022-10-20T05:26:37.290Z,3.84
2022-10-20T05:29:24.238Z,3.72
2022-10-20T05:32:11.389Z,3.70
2022-10-20T05:34:58.305Z,3.82
2022-10-20T05:37:45.250Z,4.09
2022-10-20T05:40:32.187Z,4.25
2022-10-20T05:43:19.181Z,4.35
2022-10-20T05:46:07.370Z,4.32
2022-10-20T05:48:56.959Z,4.37
2022-10-20T05:51:45.351Z,4.32
2022-10-20T05:54:32.359Z,4.22
2022-10-20T05:57:19.313Z,4.22
2022-10-20T06:00:07.012Z,4.22
2022-10-20T06:02:54.726Z,4.32
2022-10-20T06:05:41.701Z,4.23
2022-10-20T06:08:33.066Z,4.27
2022-10-20T06:11:21.192Z,4.33
2022-10-20T06:14:09.827Z,4.24
2022-10-20T06:16:57.816Z,4.21
2022-10-20T06:19:44.806Z,4.16
2022-10-20T06:22:32.005Z,4.15
2022-10-20T06:25:19.308Z,4.23
2022-10-20T06:28:06.328Z,4.35
2022-10-20T06:30:53.282Z,4.49
2022-10-20T06:33:40.297Z,4.52
2022-10-20T06:36:27.969Z,4.61
2022-10-20T06:39:20.926Z,4.70
2022-10-20T06:42:11.067Z,4.65
2022-10-20T06:44:59.888Z,4.69
2022-10-20T06:47:46.807Z,4.78
2022-10-20T06:50:35.161Z,4.84
2022-10-20T06:53:22.107Z,4.97
2022-10-20T06:56:15.386Z,5.01
2022-10-20T06:59:03.382Z,5.17
2022-10-20T07:01:50.489Z,5.23
2022-10-20T07:04:37.470Z,5.31
2022-10-20T07:07:24.575Z,5.44
2022-10-20T07:10:11.469Z,5.52
2022-10-20T07:12:58.380Z,5.57
2022-10-20T07:15:46.550Z,5.75
2022-10-20T07:18:35.519Z,5.85
2022-10-20T07:21:30.757Z,5.93
2022-10-20T07:24:21.703Z,6.00
2022-10-20T07:27:08.618Z,6.17
2022-10-20T07:29:55.548Z,6.35
2022-10-20T07:32:42.504Z,6.45
2022-10-20T07:35:30.320Z,6.65
2022-10-20T07:38:17.276Z,6.82
2022-10-20T07:41:04.279Z,6.94
2022-10-20T07:43:52.062Z,6.97
2022-10-20T07:46:39.035Z,7.08
2022-10-20T07:52:32.962Z,7.24
2022-10-20T07:55:37.575Z,7.29
2022-10-20T07:58:25.425Z,7.27
2022-10-20T08:01:12.476Z,7.30
2022-10-20T08:03:59.396Z,7.27
2022-10-20T08:06:47.360Z,7.31
2022-10-20T08:09:34.311Z,7.44
2022-10-20T08:12:21.373Z,7.52
2022-10-20T08:15:08.758Z,7.69
2022-10-20T08:17:55.662Z,7.78
2022-10-20T08:20:43.005Z,8.05
2022-10-20T08:23:30.018Z,8.21
2022-10-20T08:26:20.670Z,8.29
2022-10-20T08:29:07.793Z,8.33
2022-10-20T08:31:54.765Z,8.34
2022-10-20T08:34:41.805Z,8.49
2022-10-20T08:37:32.111Z,8.55
2022-10-20T08:40:31.009Z,8.66
2022-10-20T08:43:20.017Z,8.74
2022-10-20T08:46:07.654Z,9.00
2022-10-20T08:48:54.930Z,9.15
2022-10-20T08:51:42.686Z,9.16
2022-10-20T08:54:33.086Z,9.27
2022-10-20T08:57:34.552Z,9.32
2022-10-20T09:00:24.109Z,9.56
2022-10-20T09:03:17.678Z,9.67
2022-10-20T09:06:16.220Z,9.83
2022-10-20T09:09:03.814Z,10.17
2022-10-20T09:11:51.844Z,10.27
2022-10-20T09:14:39.985Z,10.35
2022-10-20T09:17:27.006Z,10.28
2022-10-20T09:20:28.827Z,10.39
2022-10-20T09:23:39.300Z,10.62
2022-10-20T09:26:57.568Z,10.58
2022-10-20T09:29:45.601Z,10.56
2022-10-20T09:32:50.941Z,10.82
2022-10-20T09:35:39.977Z,10.76
2022-10-20T09:38:32.502Z,11.09
2022-10-20T09:41:24.286Z,11.23
2022-10-20T09:44:25.593Z,11.34
2022-10-20T09:47:16.091Z,11.50
2022-10-20T09:50:06.813Z,11.61
2022-10-20T09:52:54.582Z,11.80
2022-10-20T09:55:47.297Z,12.10
2022-10-20T09:58:42.136Z,11.90
2022-10-20T10:01:29.307Z,11.91
2022-10-20T10:04:31.150Z,11.89
2022-10-20T10:07:27.284Z,11.76
2022-10-20T10:10:17.204Z,11.72
2022-10-20T10:16:06.393Z,11.79
2022-10-20T10:19:02.332Z,11.83
2022-10-20T10:21:54.179Z,11.93
2022-10-20T10:24:47.204Z,12.21
2022-10-20T10:27:36.567Z,12.43
2022-10-20T10:30:40.098Z,12.86
2022-10-20T10:33:29.170Z,12.91
2022-10-20T10:36:34.713Z,13.09
2022-10-20T10:39:23.207Z,13.20
2022-10-20T10:42:32.187Z,13.33
2022-10-20T10:45:36.285Z,13.61
2022-10-20T10:49:16.874Z,13.78
2022-10-20T10:53:01.767Z,14.02
2022-10-20T10:56:01.308Z,14.10
2022-10-20T10:58:58.767Z,13.85
2022-10-20T11:02:23.408Z,14.22
2022-10-20T11:08:41.721Z,14.61
2022-10-20T11:11:49.785Z,14.74
2022-10-20T11:15:13.238Z,14.90
2022-10-20T11:18:25.807Z,15.09
2022-10-20T11:21:24.083Z,15.22
2022-10-20T11:24:23.319Z,15.57
2022-10-20T11:27:14.522Z,15.64
2022-10-20T11:30:08.769Z,15.63
2022-10-20T11:33:12.998Z,15.39
2022-10-20T11:36:12.872Z,15.43
2022-10-20T11:38:59.861Z,15.07
2022-10-20T11:41:50.713Z,15.45
2022-10-20T11:44:41.810Z,15.53
2022-10-20T11:47:39.559Z,15.12
2022-10-20T11:50:26.625Z,15.24
2022-10-20T11:53:36.036Z,15.17
2022-10-20T11:57:04.732Z,14.99
2022-10-20T12:00:22.526Z,15.14
2022-10-20T12:03:45.669Z,15.39
2022-10-20T12:06:44.473Z,15.51
2022-10-20T12:09:50.140Z,15.48
2022-10-20T12:12:58.760Z,15.47
2022-10-20T12:15:48.451Z,15.45
2022-10-20T12:18:36.750Z,15.42
2022-10-20T12:22:01.376Z,15.25
2022-10-20T12:24:51.298Z,15.27
2022-10-20T12:27:38.317Z,15.06
2022-10-20T12:30:51.715Z,15.18
2022-10-20T12:34:22.370Z,15.00
2022-10-20T12:37:19.512Z,14.89
2022-10-20T12:40:06.397Z,15.24
2022-10-20T12:42:55.870Z,15.34
2022-10-20T12:45:44.465Z,15.16
2022-10-20T12:48:35.593Z,15.32
2022-10-20T12:51:50.591Z,15.31
2022-10-20T12:54:46.305Z,15.25
2022-10-20T12:57:41.691Z,15.08
2022-10-20T13:00:28.842Z,15.32
2022-10-20T13:03:44.329Z,15.29
2022-10-20T13:06:33.322Z,15.37
2022-10-20T13:09:22.111Z,15.39
2022-10-20T13:12:26.315Z,15.39
2022-10-20T13:15:18.530Z,15.23
2022-10-20T13:18:11.710Z,15.32
2022-10-20T13:21:06.668Z,15.03
2022-10-20T13:24:04.465Z,15.08
2022-10-20T13:26:57.816Z,15.00
2022-10-20T13:29:47.000Z,14.97
2022-10-20T13:33:01.724Z,15.05
2022-10-20T13:36:20.336Z,15.01
2022-10-20T13:39:28.241Z,14.90
2022-10-20T13:42:24.410Z,14.78
2022-10-20T13:45:43.721Z,14.80
2022-10-20T13:48:39.784Z,14.68
2022-10-20T13:51:35.517Z,14.64
2022-10-20T13:54:26.578Z,14.61
2022-10-20T13:57:35.032Z,14.59
2022-10-20T14:00:29.332Z,14.61
2022-10-20T14:03:18.064Z,14.57
2022-10-20T14:06:05.105Z,14.61
2022-10-20T14:08:52.049Z,14.52
2022-10-20T14:11:44.889Z,14.49
2022-10-20T14:14:33.007Z,14.48
2022-10-20T14:17:22.198Z,14.42
2022-10-20T14:20:21.881Z,14.42
2022-10-20T14:23:10.892Z,14.38
2022-10-20T14:25:59.349Z,14.37
2022-10-20T14:28:48.833Z,14.27
2022-10-20T14:31:35.874Z,14.10
2022-10-20T14:34:33.442Z,14.21
2022-10-20T14:37:41.446Z,14.29
2022-10-20T14:40:35.088Z,14.25
2022-10-20T14:43:41.690Z,14.13
2022-10-20T14:46:32.598Z,14.17
2022-10-20T14:49:27.041Z,14.21
2022-10-20T14:52:20.343Z,14.20
2022-10-20T14:55:47.179Z,14.16
2022-10-20T14:58:54.505Z,14.12
2022-10-20T15:01:50.738Z,14.02
2022-10-20T15:04:42.455Z,14.07
2022-10-20T15:07:34.840Z,14.09
2022-10-20T15:10:25.478Z,14.06
2022-10-20T15:13:28.508Z,14.01
2022-10-20T15:16:49.585Z,14.02
2022-10-20T15:19:36.794Z,14.02
2022-10-20T15:22:23.819Z,14.10
2022-10-20T15:25:10.867Z,14.06
2022-10-20T15:27:59.429Z,14.00
2022-10-20T15:30:46.586Z,14.01
2022-10-20T15:33:33.849Z,14.03
2022-10-20T15:36:25.211Z,13.88
2022-10-20T15:39:12.352Z,13.83
2022-10-20T15:41:59.272Z,13.80
2022-10-20T15:44:46.317Z,13.69
2022-10-20T15:47:33.238Z,13.62
2022-10-20T15:50:22.872Z,13.66
2022-10-20T15:53:12.949Z,13.68
2022-10-20T15:55:59.901Z,13.58
2022-10-20T15:58:47.945Z,13.38
2022-10-20T16:01:35.495Z,13.06
2022-10-20T16:04:26.324Z,12.88
2022-10-20T16:07:13.625Z,12.82
2022-10-20T16:10:00.682Z,12.65
2022-10-20T16:12:48.429Z,12.59
2022-10-20T16:15:36.018Z,12.54
2022-10-20T16:18:25.064Z,12.49
2022-10-20T16:21:15.052Z,12.43
2022-10-20T16:24:02.252Z,12.43
2022-10-20T16:26:49.339Z,12.30
2022-10-20T16:29:36.277Z,12.23
2022-10-20T16:32:23.266Z,12.23
2022-10-20T16:35:10.435Z,12.23
2022-10-20T16:37:57.905Z,12.23
2022-10-20T16:40:44.821Z,12.20
2022-10-20T16:43:32.166Z,12.20
2022-10-20T16:46:19.089Z,12.18
2022-10-20T16:49:06.485Z,12.14
2022-10-20T16:51:53.477Z,12.14
2022-10-20T16:57:29.638Z,12.18
2022-10-20T17:00:16.671Z,12.23
2022-10-20T17:03:03.767Z,12.19
2022-10-20T17:06:03.220Z,12.17
2022-10-20T17:08:50.972Z,12.25
2022-10-20T17:11:37.959Z,12.25
2022-10-20T17:14:25.757Z,-145.07
2022-10-20T17:17:13.287Z,12.23
2022-10-20T17:20:01.131Z,12.26
2022-10-20T17:22:48.085Z,12.26
2022-10-20T17:25:35.620Z,12.27
2022-10-20T17:28:22.557Z,12.21
2022-10-20T17:31:11.725Z,12.30
2022-10-20T17:33:59.532Z,12.30
2022-10-20T17:36:46.567Z,12.28
2022-10-20T17:39:33.530Z,12.28
2022-10-20T17:42:20.497Z,12.27
2022-10-20T17:45:08.025Z,12.27
2022-10-20T17:47:55.700Z,12.30
2022-10-20T17:50:44.195Z,12.24
2022-10-20T17:53:33.726Z,12.25
2022-10-20T17:56:27.693Z,12.25
2022-10-20T17:59:15.180Z,12.25
2022-10-20T18:02:02.825Z,12.21
2022-10-20T18:04:51.639Z,12.24
2022-10-20T18:07:40.022Z,12.21
2022-10-20T18:10:28.012Z,12.23
2022-10-20T18:13:15.983Z,12.22
2022-10-20T18:16:12.396Z,12.16
2022-10-20T18:19:00.794Z,12.16
2022-10-20T18:21:49.533Z,12.16
2022-10-20T18:24:37.726Z,12.15
2022-10-20T18:27:24.736Z,12.13
2022-10-20T18:30:12.518Z,12.10
2022-10-20T18:33:00.065Z,12.04
2022-10-20T18:35:47.195Z,12.03
2022-10-20T18:38:39.314Z,12.01
2022-10-20T18:41:30.281Z,12.05
2022-10-20T18:44:19.473Z,12.05
2022-10-20T18:47:06.452Z,12.03
2022-10-20T18:49:53.384Z,12.02
2022-10-20T18:52:40.326Z,12.01
2022-10-20T18:55:27.350Z,11.98
2022-10-20T18:58:14.336Z,12.03
2022-10-20T19:01:10.168Z,12.00
2022-10-20T19:03:59.042Z,11.94
2022-10-20T19:06:48.211Z,11.95
2022-10-20T19:09:35.140Z,11.91
2022-10-20T19:12:22.093Z,11.79
2022-10-20T19:15:09.302Z,11.73
2022-10-20T19:18:00.836Z,11.70
2022-10-20T19:20:55.511Z,11.65
2022-10-20T19:23:47.212Z,11.55
2022-10-20T19:26:38.888Z,11.52
2022-10-20T19:29:26.010Z,11.55
2022-10-20T19:32:12.966Z,11.47
2022-10-20T19:34:59.950Z,11.59
2022-10-20T19:37:46.899Z,11.67
2022-10-20T19:40:33.870Z,11.63
2022-10-20T19:43:20.818Z,11.63
2022-10-20T19:46:11.109Z,11.57
2022-10-20T19:48:58.196Z,11.75
2022-10-20T19:51:45.397Z,11.72
2022-10-20T19:54:32.502Z,11.74
2022-10-20T19:57:19.441Z,11.78
2022-10-20T20:00:07.535Z,11.82
2022-10-20T20:02:54.506Z,11.86
2022-10-20T20:05:41.489Z,11.87
2022-10-20T20:08:28.525Z,11.84
2022-10-20T20:11:23.957Z,11.86
2022-10-20T20:14:16.266Z,11.82
2022-10-20T20:17:04.313Z,11.76
2022-10-20T20:19:52.147Z,11.81
2022-10-20T20:22:39.067Z,11.81
2022-10-20T20:25:26.011Z,11.86
2022-10-20T20:28:13.078Z,11.83
2022-10-20T20:31:12.222Z,11.82
2022-10-20T20:33:59.224Z,11.84
2022-10-20T20:36:46.276Z,11.83
2022-10-20T20:39:33.244Z,11.83
2022-10-20T20:42:20.242Z,-98.30
2022-10-20T20:45:07.611Z,11.78
2022-10-20T20:47:54.626Z,11.66
2022-10-20T20:50:41.556Z,11.69
2022-10-20T20:53:28.519Z,11.61
2022-10-20T20:56:19.584Z,11.64
2022-10-20T20:59:09.538Z,11.62
2022-10-20T21:01:56.510Z,11.67
2022-10-20T21:04:43.636Z,11.61
2022-10-20T21:07:31.804Z,11.72
2022-10-20T21:10:18.878Z,11.69
2022-10-20T21:13:05.818Z,11.66
2022-10-20T21:15:52.777Z,11.70
2022-10-20T21:18:41.420Z,11.69
2022-10-20T21:21:32.419Z,11.63
2022-10-20T21:24:19.336Z,11.53
2022-10-20T21:27:06.342Z,11.64
2022-10-20T21:29:53.300Z,11.51
2022-10-20T21:32:40.677Z,11.45
2022-10-20T21:35:27.791Z,11.43
2022-10-20T21:38:14.902Z,11.33
2022-10-20T21:41:06.907Z,11.46
2022-10-20T21:43:56.245Z,11.54
2022-10-20T21:46:50.739Z,11.48
2022-10-20T21:49:38.589Z,11.43
2022-10-20T21:52:25.514Z,11.45
2022-10-20T21:55:12.466Z,11.47
2022-10-20T21:57:59.468Z,11.41
2022-10-20T22:00:46.468Z,11.44
2022-10-20T22:06:22.877Z,11.40
2022-10-20T22:09:11.768Z,11.44
2022-10-20T22:11:59.691Z,11.41
2022-10-20T22:14:47.331Z,11.36
2022-10-20T22:17:34.591Z,11.31
2022-10-20T22:20:22.295Z,11.37
2022-10-20T22:23:09.304Z,11.32
2022-10-20T22:25:56.168Z,11.48
2022-10-20T22:28:43.170Z,11.71
2022-10-20T22:31:30.490Z,11.65
2022-10-20T22:34:18.074Z,11.53
2022-10-20T22:37:04.998Z,11.44
2022-10-20T22:39:51.955Z,11.41
2022-10-20T22:42:39.201Z,11.44
2022-10-20T22:45:26.313Z,11.51
2022-10-20T22:48:13.326Z,-145.07
2022-10-20T22:51:00.565Z,11.53
2022-10-20T22:53:47.628Z,-145.07
2022-10-20T22:56:35.058Z,-145.07
2022-10-20T22:59:22.287Z,-145.07
2022-10-20T23:02:09.384Z,-145.07
2022-10-20T23:04:56.656Z,-145.07
2022-10-20T23:07:43.779Z,-145.07
2022-10-20T23:10:30.993Z,-145.07
2022-10-20T23:13:18.406Z,-145.07
2022-10-20T23:16:06.712Z,-145.07
2022-10-20T23:18:56.648Z,-145.07
2022-10-20T23:21:44.016Z,-145.07
2022-10-20T23:24:31.174Z,-145.07
2022-10-20T23:27:18.369Z,-145.07
2022-10-20T23:30:05.870Z,-145.07
2022-10-20T23:32:52.897Z,-145.07
2022-10-20T23:35:41.869Z,-145.07
2022-10-20T23:38:28.902Z,-145.07
2022-10-20T23:41:16.122Z,-145.07
2022-10-20T23:44:03.655Z,-145.07
2022-10-20T23:46:52.221Z,-145.07
2022-10-20T23:49:39.486Z,-145.07
2022-10-20T23:52:26.992Z,-145.07
2022-10-20T23:55:15.583Z,-145.07
2022-10-20T23:58:02.837Z,-145.07
